Apex, NC

7:48 AM EDT on August 04, 2015 (GMT -0400)
Abbington | | Change Station
CLOSE
Current Station
Personal Weather Station
Location: Apex, NC
Elevation: 371 ft
Nearby Weather Stations

Elev 371 ft 35.74 °N, 78.90 °W | Updated 41 seconds ago

Overcast
Overcast
74.8 °F
Feels Like 73 °F
N
0.7
Wind Variable Wind from SE
Gusts 2.2 mph

Today
High -- | Low -- °F
--% Chance of Precip.
Yesterday
High -- | Low -- °F
Precip. -- in
6:25 AM 8:17 PM
Waning Gibbous, 78% visible
Pressure 29.99 in
Visibility 4.0 miles
Clouds Overcast 600 ft
Heat Index 73 °F
Dew Point 73.9 °F
Humidity 96%
Rainfall 0.00 in
Snow Depth Not available.
UV 0 out of 12
Pollen 4.60 out of 12
Air Quality Not available.
Flu Activity Not available.
METAR KTTA 041135Z AUTO 00000KT 4SM BR OVC006 22/22 A2999 RMK AO2 T02160216

More Conditions Fewer Conditions

Pressure 29.99 in
Visibility 4.0 miles
Clouds Overcast 600 ft
Heat Index 73 °F
Dew Point 73.9 °F
Humidity 96%
Rainfall 0.00 in
Snow Depth Not available.
UV 0 out of 12
Pollen 4.60 out of 12
Air Quality Not available.
Flu Activity Not available.
METAR KTTA 041135Z AUTO 00000KT 4SM BR OVC006 22/22 A2999 RMK AO2 T02160216

More Conditions Fewer Conditions

10-Day Weather Forecast

×

Almanac

Astronomy

Aug. 04, 2015 Rise Set
Actual Time
Civil Twilight
Nautical Twilight
Astronomical Twilight
Moon
Length of Visible Light
Length of Day
Tomorrow will be .
, % of the Moon is Illuminated

Today's Extremes

State Highs State Lows

Community

WunderPhotos

Upload Photos

1,843,900 photos uploaded!

WunderBlogs® & News

Nearby

Air Quality

  Air Quality AQ Index Pollutant
Not available.

Snow Depth

Station Depth Elevation

Earthquake Activity

City Distance Mag. Time & Date
Minimum magnitude displayed is 2.5.

Coastal Water Temperatures

Place Temperature

Stations

Nearby Weather Stations

Station Location Temp. Windchill Dew Point Humidity Wind Precip. Elev Updated Type